This is the latest recevied weather packets stored in our database for station/object SM6LNJ-13. If no packets are shown the sender has not sent any weather packets the latest 10 day(s).
| Time | Temp. | Humidity | Pressure | Rain* | Wind** | Luminosity | Snow |
|---|---|---|---|---|---|---|---|
| 1777479353 | 9.44° C | 80% | 1418 hPa | 0 mm | - | - | - |
| 1777479233 | 9.44° C | 80% | 1418.1 hPa | 0 mm | - | - | - |
| 1777478993 | 10° C | 79% | 1418.7 hPa | 0 mm | - | - | - |
| 1777478873 | 10° C | 79% | 1418.9 hPa | 0 mm | - | - | - |
| 1777478753 | 10° C | 79% | 1419.1 hPa | 0 mm | - | - | - |
| 1777478273 | 10° C | 77% | 1419.5 hPa | 0 mm | - | - | - |
| 1777477433 | 11.11° C | 76% | 1421.6 hPa | 0 mm | - | - | - |
| 1777470953 | 17.22° C | 60% | 1435.8 hPa | 0 mm | - | - | - |
| 1777470832 | 17.22° C | 60% | 1436.3 hPa | 0 mm | - | - | - |
| 1777470713 | 17.22° C | 61% | 1436.1 hPa | 0 mm | - | - | - |
| 1777469873 | 16.67° C | 65% | 1434.3 hPa | 0 mm | - | - | - |
| 1777469633 | 15° C | 65% | 1431.6 hPa | 0 mm | - | - | - |
| 1777469273 | 15° C | 65% | 1431.3 hPa | 0 mm | - | - | - |
| 1777469153 | 15° C | 64% | 1431.5 hPa | 0 mm | - | - | - |
| 1777469033 | 15.56° C | 64% | 1432.5 hPa | 0 mm | - | - | - |
| 1777468913 | 16.11° C | 64% | 1433.7 hPa | 0 mm | - | - | - |
| 1777468673 | 16.11° C | 64% | 1433.7 hPa | 0 mm | - | - | - |
| 1777468553 | 16.11° C | 64% | 1433.1 hPa | 0 mm | - | - | - |
| 1777468433 | 16.11° C | 63% | 1433.6 hPa | 0 mm | - | - | - |
| 1777468313 | 16.11° C | 64% | 1434 hPa | 0 mm | - | - | - |
| 1777468193 | 16.11° C | 64% | 1433.8 hPa | 0 mm | - | - | - |
| 1777468073 | 16.11° C | 64% | 1433.7 hPa | 0 mm | - | - | - |
| 1777467953 | 16.11° C | 64% | 1433.3 hPa | 0 mm | - | - | - |
| 1777467713 | 15.56° C | 64% | 1432.9 hPa | 0 mm | - | - | - |
| 1777467593 | 16.11° C | 64% | 1433.2 hPa | 0 mm | - | - | - |
* Rain latest hour (hover to see other rain measurements)
** Current wind speed in m/s (hover to see current wind gust speed)